This is the latest recevied weather packets stored in our database for station/object KB4JHU-15. If no packets are shown the sender has not sent any weather packets the latest 10 day(s).
| Time | Temp. | Humidity | Pressure | Rain* | Wind** | Luminosity | Snow |
|---|---|---|---|---|---|---|---|
| 1788357334 | 29.44° C | 64% | - | 0 mm | - | - | - |
| 1788355533 | 27.22° C | 75% | - | 0 mm | - | - | - |
| 1788353732 | 23.89° C | 87% | - | 0 mm | - | - | - |
| 1788351931 | 22.22° C | 92% | - | 0 mm | - | - | - |
| 1788350130 | 21.67° C | 93% | - | 0 mm | - | - | - |
| 1788348329 | 21.67° C | 92% | - | 0 mm | - | - | - |
| 1788346528 | 21.67° C | 92% | - | 0 mm | - | - | - |
| 1788344727 | 21.67° C | 92% | - | 0 mm | - | - | - |
| 1788342926 | 22.22° C | 91% | - | 0 mm | - | - | - |
| 1788341125 | 22.22° C | 91% | - | 0 mm | - | - | - |
| 1788339324 | 22.22° C | 90% | - | 0 mm | - | - | - |
| 1788337523 | 22.22° C | 90% | - | 0 mm | - | - | - |
| 1788335722 | 22.78° C | 89% | - | 0 mm | - | - | - |
| 1788333921 | 22.78° C | 88% | - | 0 mm | - | - | - |
| 1788332120 | 22.78° C | 88% | - | 0 mm | - | - | - |
| 1788330319 | 23.33° C | 86% | - | 0 mm | - | - | - |
| 1788328518 | 23.33° C | 85% | - | 0 mm | - | - | - |
| 1788326717 | 23.33° C | 84% | - | 0 mm | - | - | - |
| 1788324916 | 23.89° C | 83% | - | 0 mm | - | - | - |
| 1788323115 | 24.44° C | 81% | - | 0 mm | - | - | - |
| 1788321314 | 25° C | 78% | - | 0 mm | - | - | - |
| 1788319513 | 25° C | 78% | - | 0 mm | - | - | - |
| 1788317712 | 25.56° C | 75% | - | 0 mm | - | - | - |
| 1788315911 | 26.11° C | 72% | - | 0 mm | - | - | - |
| 1788314110 | 27.22° C | 69% | - | 0 mm | - | - | - |
* Rain latest hour (hover to see other rain measurements)
** Current wind speed in m/s (hover to see current wind gust speed)